Edgar B Speer — WQZ9670 — position and weather

sailwx.info

Track history (hours):
 
Tides and Currents Weather Stations Pressure Air Temp Water Temp Dewpoint Dewpoint Depression Visibility Wind Speed Wind Dir Waves Ship Positions

Edgar B Speer

Owner: Great Lakes Fleet, Inc, DULUTH, MN. More information available from US FCC via Universal Licensing System and Coast Guard Vessel Documentation Center.

Last reported at 2015-Jul-30 00:33 UTC. Time now 2015-Jul-31 15:28 UTC.
Position N 44°37' W 086°32'.

Length 306 m; draft 8.6 m.

Type: Cargo ship. MMSI: 366971330.

Date/timePositionNaut miles runAvg speedWind from/ knotsBaromVisibWave heightAir tempDewpointWater temp
2015-Jul-30 00:33N 44°37' W 086°32'1312.6
2015-Jul-29 23:33N 44°49' W 086°27'1212.5
2015-Jul-29 22:33N 45°01' W 086°22'1212.3
2015-Jul-29 21:33N 45°13' W 086°18'1212.2
2015-Jul-29 20:33N 45°24' W 086°13'1212.1
2015-Jul-29 19:33N 45°36' W 086°08'1111.2
2015-Jul-29 18:33N 45°44' W 085°57'1212.0
2015-Jul-29 17:33N 45°51' W 085°43'1111.4
2015-Jul-29 16:33N 45°54' W 085°27'1211.7
2015-Jul-29 15:33N 45°52' W 085°10'1211.9
2015-Jul-29 14:33N 45°50' W 084°53'1111.1
2015-Jul-29 13:33N 45°50' W 084°37'1111.4
2015-Jul-29 12:33N 45°53' W 084°21'1212.2
2015-Jul-29 11:33N 45°54' W 084°04'10 8.4
2015-Jul-29 10:25N 46°02' W 083°55'7 8.4
2015-Jul-29 09:33N 46°08' W 084°01'9 8.5
2015-Jul-29 08:33N 46°13' W 084°10'6 6.1
2015-Jul-29 07:33N 46°19' W 084°13'13 3.2
2015-Jul-29 03:25N 46°30' W 084°24'4 4.0
2015-Jul-29 02:30N 46°28' W 084°28'11 8.3
2015-Jul-29 01:09N 46°34' W 084°42'812.6
2015-Jul-29 00:30N 46°41' W 084°49'16112.1
2015-Jul-28 11:11N 47°35' W 088°33'812.6
2015-Jul-28 10:33N 47°33' W 088°44'1312.7
2015-Jul-28 09:33N 47°30' W 089°03'1412.7
2015-Jul-28 08:29N 47°27' W 089°22'6312.6
2015-Jul-28 03:29N 47°13' W 090°53'1212.7
2015-Jul-28 02:32N 47°08' W 091°09'1212.4
2015-Jul-28 01:33N 47°04' W 091°26'1110.5
2015-Jul-28 00:33N 47°00' W 091°40'1 0.1
2015-Jul-27 15:16N 47°01' W 091°40'0 0.0
2015-Jul-27 14:18N 47°01' W 091°40'0 0.1
2015-Jul-27 13:32N 47°01' W 091°40'1 1.0
2015-Jul-27 12:33N 46°60' W 091°40'1211.7
2015-Jul-27 11:33N 47°03' W 091°23'1313.1
2015-Jul-27 10:32N 47°06' W 091°04'1613.0
2015-Jul-27 09:18N 47°10' W 090°41'1313.2
2015-Jul-27 08:17N 47°12' W 090°22'22512.7
2015-Jul-26 14:33N 46°46' W 084°55'1513.1
2015-Jul-26 13:26N 46°34' W 084°43'1011.4
2015-Jul-26 12:33N 46°27' W 084°32'8 7.6
2015-Jul-26 11:33N 46°30' W 084°22'1 1.0
2015-Jul-26 10:31N 46°30' W 084°21'1 1.1
2015-Jul-26 09:31N 46°30' W 084°19'7 5.8
2015-Jul-26 08:22N 46°24' W 084°14'7 7.1
2015-Jul-26 07:25N 46°19' W 084°08'6 6.7
2015-Jul-26 06:33N 46°13' W 084°07'9 9.0
2015-Jul-26 05:33N 46°05' W 084°01'1010.2
2015-Jul-26 04:33N 45°56' W 083°54'1313.2
2015-Jul-26 03:33N 45°51' W 084°11'1413.7
2015-Jul-26 02:33N 45°51' W 084°31'1312.9
2015-Jul-26 01:34N 45°49' W 084°49'1313.3
2015-Jul-26 00:34N 45°49' W 085°08'1211.7
2015-Jul-25 23:33N 45°39' W 085°16'1413.7
2015-Jul-25 22:34N 45°28' W 085°28'1413.5
2015-Jul-25 21:33N 45°17' W 085°39'1313.4
2015-Jul-25 20:34N 45°06' W 085°50'1313.1
2015-Jul-25 19:33N 44°58' W 086°05'1312.8
2015-Jul-25 18:34N 44°49' W 086°17'1413.2
2015-Jul-25 17:32N 44°36' W 086°24'1813.1
2015-Jul-25 16:11N 44°19' W 086°31'8 0.2
2015-Jul-23 22:17N 44°26' W 086°36'912.3
2015-Jul-23 21:33N 44°35' W 086°33'1212.5
2015-Jul-23 20:33N 44°47' W 086°28'1312.7
2015-Jul-23 19:33N 44°59' W 086°23'1313.0
2015-Jul-23 18:33N 45°11' W 086°18'1313.1
2015-Jul-23 17:33N 45°24' W 086°13'1312.9
2015-Jul-23 16:33N 45°36' W 086°08'1211.7
2015-Jul-23 15:33N 45°45' W 085°57'1312.5
2015-Jul-23 14:33N 45°51' W 085°41'1212.1
2015-Jul-23 13:33N 45°53' W 085°24'1312.5
2015-Jul-23 12:33N 45°52' W 085°06'1312.8
2015-Jul-23 11:33N 45°49' W 084°48'1111.1
2015-Jul-23 10:33N 45°51' W 084°33'1212.4
2015-Jul-23 09:33N 45°53' W 084°15'1212.3
2015-Jul-23 08:33N 45°55' W 083°58'7 6.7
2015-Jul-23 07:33N 46°02' W 083°55'10 8.7
2015-Jul-23 06:26N 46°10' W 084°04'7 8.1
2015-Jul-23 05:33N 46°15' W 084°11'6 5.7
2015-Jul-23 04:33N 46°21' W 084°13'30310.1
2015-Jul-21 22:29N 47°03' W 091°30'7 0.6
2015-Jul-21 11:21N 47°01' W 091°40'0 0.0
2015-Jul-21 10:33N 47°01' W 091°40'0 0.0
2015-Jul-21 09:33N 47°01' W 091°40'0 0.2
2015-Jul-21 08:33N 47°01' W 091°40'4 3.6
2015-Jul-21 07:33N 47°01' W 091°35'1110.6
2015-Jul-21 06:33N 47°04' W 091°20'26412.3
2015-Jul-20 09:08N 46°45' W 084°54'713.0
2015-Jul-20 08:33N 46°39' W 084°49'1312.2
2015-Jul-20 07:30N 46°29' W 084°36'7 6.9
2015-Jul-20 06:33N 46°29' W 084°26'4 3.3
2015-Jul-20 05:25N 46°30' W 084°21'1 1.0
2015-Jul-20 04:33N 46°30' W 084°20'3 3.4
2015-Jul-20 03:33N 46°27' W 084°17'8 7.8
2015-Jul-20 02:33N 46°21' W 084°11'6 6.3
2015-Jul-20 01:31N 46°15' W 084°06'  
Track history (hours):
 
Tides and Currents Weather Stations Pressure Air Temp Water Temp Dewpoint Dewpoint Depression Visibility Wind Speed Wind Dir Waves Ship Positions

Edgar B Speer

Owner: Great Lakes Fleet, Inc, DULUTH, MN. More information available from US FCC via Universal Licensing System and Coast Guard Vessel Documentation Center.

Last reported at 2015-Jul-30 00:33 UTC. Time now 2015-Jul-31 15:28 UTC.
Position N 44°37' W 086°32'.

Length 306 m; draft 8.6 m.

Type: Cargo ship. MMSI: 366971330.

Date/timePositionNaut miles runAvg speedWind from/ knotsBaromVisibWave heightAir tempDewpointWater temp
2015-Jul-30 00:33N 44°37' W 086°32'1312.6
2015-Jul-29 23:33N 44°49' W 086°27'1212.5
2015-Jul-29 22:33N 45°01' W 086°22'1212.3
2015-Jul-29 21:33N 45°13' W 086°18'1212.2
2015-Jul-29 20:33N 45°24' W 086°13'1212.1
2015-Jul-29 19:33N 45°36' W 086°08'1111.2
2015-Jul-29 18:33N 45°44' W 085°57'1212.0
2015-Jul-29 17:33N 45°51' W 085°43'1111.4
2015-Jul-29 16:33N 45°54' W 085°27'1211.7
2015-Jul-29 15:33N 45°52' W 085°10'1211.9
2015-Jul-29 14:33N 45°50' W 084°53'1111.1
2015-Jul-29 13:33N 45°50' W 084°37'1111.4
2015-Jul-29 12:33N 45°53' W 084°21'1212.2
2015-Jul-29 11:33N 45°54' W 084°04'10 8.4
2015-Jul-29 10:25N 46°02' W 083°55'7 8.4
2015-Jul-29 09:33N 46°08' W 084°01'9 8.5
2015-Jul-29 08:33N 46°13' W 084°10'6 6.1
2015-Jul-29 07:33N 46°19' W 084°13'13 3.2
2015-Jul-29 03:25N 46°30' W 084°24'4 4.0
2015-Jul-29 02:30N 46°28' W 084°28'11 8.3
2015-Jul-29 01:09N 46°34' W 084°42'812.6
2015-Jul-29 00:30N 46°41' W 084°49'16112.1
2015-Jul-28 11:11N 47°35' W 088°33'812.6
2015-Jul-28 10:33N 47°33' W 088°44'1312.7
2015-Jul-28 09:33N 47°30' W 089°03'1412.7
2015-Jul-28 08:29N 47°27' W 089°22'6312.6
2015-Jul-28 03:29N 47°13' W 090°53'1212.7
2015-Jul-28 02:32N 47°08' W 091°09'1212.4
2015-Jul-28 01:33N 47°04' W 091°26'1110.5
2015-Jul-28 00:33N 47°00' W 091°40'1 0.1
2015-Jul-27 15:16N 47°01' W 091°40'0 0.0
2015-Jul-27 14:18N 47°01' W 091°40'0 0.1
2015-Jul-27 13:32N 47°01' W 091°40'1 1.0
2015-Jul-27 12:33N 46°60' W 091°40'1211.7
2015-Jul-27 11:33N 47°03' W 091°23'1313.1
2015-Jul-27 10:32N 47°06' W 091°04'1613.0
2015-Jul-27 09:18N 47°10' W 090°41'1313.2
2015-Jul-27 08:17N 47°12' W 090°22'22512.7
2015-Jul-26 14:33N 46°46' W 084°55'1513.1
2015-Jul-26 13:26N 46°34' W 084°43'1011.4
2015-Jul-26 12:33N 46°27' W 084°32'8 7.6
2015-Jul-26 11:33N 46°30' W 084°22'1 1.0
2015-Jul-26 10:31N 46°30' W 084°21'1 1.1
2015-Jul-26 09:31N 46°30' W 084°19'7 5.8
2015-Jul-26 08:22N 46°24' W 084°14'7 7.1
2015-Jul-26 07:25N 46°19' W 084°08'6 6.7
2015-Jul-26 06:33N 46°13' W 084°07'9 9.0
2015-Jul-26 05:33N 46°05' W 084°01'1010.2
2015-Jul-26 04:33N 45°56' W 083°54'1313.2
2015-Jul-26 03:33N 45°51' W 084°11'1413.7
2015-Jul-26 02:33N 45°51' W 084°31'1312.9
2015-Jul-26 01:34N 45°49' W 084°49'1313.3
2015-Jul-26 00:34N 45°49' W 085°08'1211.7
2015-Jul-25 23:33N 45°39' W 085°16'1413.7
2015-Jul-25 22:34N 45°28' W 085°28'1413.5
2015-Jul-25 21:33N 45°17' W 085°39'1313.4
2015-Jul-25 20:34N 45°06' W 085°50'1313.1
2015-Jul-25 19:33N 44°58' W 086°05'1312.8
2015-Jul-25 18:34N 44°49' W 086°17'1413.2
2015-Jul-25 17:32N 44°36' W 086°24'1813.1
2015-Jul-25 16:11N 44°19' W 086°31'8 0.2
2015-Jul-23 22:17N 44°26' W 086°36'912.3
2015-Jul-23 21:33N 44°35' W 086°33'1212.5
2015-Jul-23 20:33N 44°47' W 086°28'1312.7
2015-Jul-23 19:33N 44°59' W 086°23'1313.0
2015-Jul-23 18:33N 45°11' W 086°18'1313.1
2015-Jul-23 17:33N 45°24' W 086°13'1312.9
2015-Jul-23 16:33N 45°36' W 086°08'1211.7
2015-Jul-23 15:33N 45°45' W 085°57'1312.5
2015-Jul-23 14:33N 45°51' W 085°41'1212.1
2015-Jul-23 13:33N 45°53' W 085°24'1312.5
2015-Jul-23 12:33N 45°52' W 085°06'1312.8
2015-Jul-23 11:33N 45°49' W 084°48'1111.1
2015-Jul-23 10:33N 45°51' W 084°33'1212.4
2015-Jul-23 09:33N 45°53' W 084°15'1212.3
2015-Jul-23 08:33N 45°55' W 083°58'7 6.7
2015-Jul-23 07:33N 46°02' W 083°55'10 8.7
2015-Jul-23 06:26N 46°10' W 084°04'7 8.1
2015-Jul-23 05:33N 46°15' W 084°11'6 5.7
2015-Jul-23 04:33N 46°21' W 084°13'30310.1
2015-Jul-21 22:29N 47°03' W 091°30'7 0.6
2015-Jul-21 11:21N 47°01' W 091°40'0 0.0
2015-Jul-21 10:33N 47°01' W 091°40'0 0.0
2015-Jul-21 09:33N 47°01' W 091°40'0 0.2
2015-Jul-21 08:33N 47°01' W 091°40'4 3.6
2015-Jul-21 07:33N 47°01' W 091°35'1110.6
2015-Jul-21 06:33N 47°04' W 091°20'26412.3
2015-Jul-20 09:08N 46°45' W 084°54'713.0
2015-Jul-20 08:33N 46°39' W 084°49'1312.2
2015-Jul-20 07:30N 46°29' W 084°36'7 6.9
2015-Jul-20 06:33N 46°29' W 084°26'4 3.3
2015-Jul-20 05:25N 46°30' W 084°21'1 1.0
2015-Jul-20 04:33N 46°30' W 084°20'3 3.4
2015-Jul-20 03:33N 46°27' W 084°17'8 7.8
2015-Jul-20 02:33N 46°21' W 084°11'6 6.3
2015-Jul-20 01:31N 46°15' W 084°06'  

Dump ship's entire track history